Time;durP1;ratioP1;P1;durP2;ratioP2;P2;SDS_P1;SDS_P2;PMS_P1;PMS_P2;Temp;Humidity;BMP_temperature;BMP_pressure;BME280_temperature;BME280_humidity;BME280_pressure;Samples;Min_cycle;Max_cycle;Signal;HPM_P1;HPM_P2
2021/12/26 00:00:36;;;;;;;24.87;17.27;;;;;;;;;;21077710;28;20056;-60
2021/12/26 00:10:39;;;;;;;22.63;16.73;;;;;;;;;;21093756;28;20040;-59
2021/12/26 00:20:42;;;;;;;31.92;21.80;;;;;;;;;;21094883;28;20488;-58
2021/12/26 00:30:45;;;;;;;30.65;21.42;;;;;;;;;;21092877;28;20052;-58
2021/12/26 00:40:50;;;;;;;34.53;24.00;;;;;;;;;;21092777;28;20510;-59
2021/12/26 00:50:54;;;;;;;;;;;;;;;;;;21091733;28;20056;-59
2021/12/26 01:00:56;;;;;;;45.20;23.88;;;;;;;;;;21090600;28;19924;-58
2021/12/26 01:11:04;;;;;;;46.72;24.25;;;;;;;;;;21089270;28;20359;-57
2021/12/26 01:21:19;;;;;;;51.03;24.38;;;;;;;;;;21087648;28;20101;-58
2021/12/26 01:31:24;;;;;;;52.25;25.58;;;;;;;;;;21088746;28;20112;-57
2021/12/26 01:41:27;;;;;;;51.30;26.90;;;;;;;;;;21086819;28;20083;-60
2021/12/26 01:51:30;;;;;;;59.33;28.95;;;;;;;;;;21085897;28;20502;-58
2021/12/26 02:01:38;;;;;;;49.33;25.05;;;;;;;;;;21084686;28;20044;-58
2021/12/26 02:11:42;;;;;;;46.15;25.08;;;;;;;;;;21084860;28;20123;-58
2021/12/26 02:22:02;;;;;;;44.38;24.48;;;;;;;;;;21083284;28;20496;-58
2021/12/26 02:32:04;;;;;;;37.55;21.92;;;;;;;;;;21082292;28;20452;-57
2021/12/26 02:42:13;;;;;;;27.30;15.32;;;;;;;;;;21081636;28;20066;-58
2021/12/26 02:52:35;;;;;;;21.23;13.07;;;;;;;;;;21081736;28;20347;-56
2021/12/26 03:02:54;;;;;;;23.45;14.27;;;;;;;;;;21080619;28;20482;-58
2021/12/26 03:13:14;;;;;;;24.45;14.77;;;;;;;;;;21079832;28;20050;-57
2021/12/26 03:23:33;;;;;;;16.88;11.95;;;;;;;;;;21079841;28;20070;-58
2021/12/26 03:33:52;;;;;;;20.42;13.00;;;;;;;;;;21079051;28;20505;-61
2021/12/26 03:44:10;;;;;;;22.23;14.75;;;;;;;;;;21078800;28;20414;-58
2021/12/26 03:54:21;;;;;;;20.55;13.45;;;;;;;;;;21077976;28;20045;-59
2021/12/26 04:04:27;;;;;;;18.83;13.20;;;;;;;;;;21078280;28;20084;-58
2021/12/26 04:14:39;;;;;;;11.98;8.77;;;;;;;;;;21078014;28;20040;-58
2021/12/26 04:24:50;;;;;;;8.90;6.70;;;;;;;;;;21076966;28;20454;-57
2021/12/26 04:34:57;;;;;;;7.85;6.32;;;;;;;;;;21076722;28;20048;-59
2021/12/26 04:45:07;;;;;;;7.30;6.25;;;;;;;;;;21075902;28;20143;-57
2021/12/26 04:55:27;;;;;;;7.03;5.75;;;;;;;;;;21087543;28;20433;-58
2021/12/26 05:05:32;;;;;;;6.47;5.05;;;;;;;;;;21089834;28;20512;-57
2021/12/26 05:15:44;;;;;;;7.15;4.90;;;;;;;;;;21089915;28;20047;-58
2021/12/26 05:26:05;;;;;;;8.90;6.03;;;;;;;;;;21088539;28;20044;-56
2021/12/26 05:36:27;;;;;;;6.68;4.95;;;;;;;;;;21087601;28;20056;-56
2021/12/26 05:46:43;;;;;;;5.78;4.68;;;;;;;;;;21086462;28;20047;-57
2021/12/26 05:57:04;;;;;;;7.55;5.30;;;;;;;;;;21085847;28;20052;-59
2021/12/26 06:07:10;;;;;;;6.75;5.55;;;;;;;;;;21084450;28;20417;-58
2021/12/26 06:17:16;;;;;;;5.95;4.82;;;;;;;;;;21084458;28;20048;-58
2021/12/26 06:27:24;;;;;;;5.05;3.55;;;;;;;;;;21084193;28;20048;-57
2021/12/26 06:37:27;;;;;;;5.05;4.20;;;;;;;;;;21064580;28;20086;-58
2021/12/26 06:47:31;;;;;;;4.00;3.40;;;;;;;;;;21081756;28;20406;-58
2021/12/26 06:57:35;;;;;;;5.27;4.60;;;;;;;;;;21081098;28;20063;-57
2021/12/26 07:07:48;;;;;;;4.75;3.58;;;;;;;;;;21082148;28;20462;-60
2021/12/26 07:17:52;;;;;;;4.78;3.83;;;;;;;;;;21079685;28;20048;-57
2021/12/26 07:27:55;;;;;;;5.50;4.13;;;;;;;;;;21080461;28;20051;-58
2021/12/26 07:37:58;;;;;;;6.00;4.85;;;;;;;;;;21079487;28;20051;-58
2021/12/26 07:48:05;;;;;;;5.22;4.22;;;;;;;;;;21078311;28;20051;-58
2021/12/26 07:58:16;;;;;;;5.18;4.65;;;;;;;;;;21077350;28;20236;-58
2021/12/26 08:08:26;;;;;;;6.13;4.38;;;;;;;;;;21077391;28;20055;-60
2021/12/26 08:18:35;;;;;;;3.97;3.58;;;;;;;;;;21077228;28;20486;-58
2021/12/26 08:28:43;;;;;;;4.95;3.70;;;;;;;;;;21086278;28;20040;-59
2021/12/26 08:38:49;;;;;;;8.57;5.03;;;;;;;;;;21091718;28;20066;-58
2021/12/26 08:48:54;;;;;;;6.10;4.45;;;;;;;;;;21090941;28;20296;-58
2021/12/26 08:59:03;;;;;;;6.72;4.32;;;;;;;;;;21090132;28;20135;-58
2021/12/26 09:09:10;;;;;;;4.95;4.05;;;;;;;;;;21088679;28;20044;-58
2021/12/26 09:19:17;;;;;;;4.07;2.90;;;;;;;;;;21088267;28;20075;-59
2021/12/26 09:29:23;;;;;;;3.20;2.75;;;;;;;;;;21087328;28;20083;-58
2021/12/26 09:39:29;;;;;;;12.95;9.48;;;;;;;;;;21085937;28;20095;-58
2021/12/26 09:49:37;;;;;;;3.97;2.67;;;;;;;;;;21085861;28;20056;-58
2021/12/26 09:59:43;;;;;;;4.40;3.38;;;;;;;;;;21085598;28;20054;-57
2021/12/26 10:09:47;;;;;;;4.17;2.90;;;;;;;;;;21085204;28;20111;-59
2021/12/26 10:19:51;;;;;;;4.53;2.87;;;;;;;;;;21083038;28;20055;-59
2021/12/26 10:29:55;;;;;;;5.22;3.00;;;;;;;;;;21082915;28;20413;-59
2021/12/26 10:40:05;;;;;;;5.10;3.13;;;;;;;;;;21082551;28;20051;-58
2021/12/26 10:50:12;;;;;;;3.75;2.80;;;;;;;;;;21080584;28;20052;-58
2021/12/26 11:00:29;;;;;;;3.17;2.30;;;;;;;;;;21079887;28;20190;-59
2021/12/26 11:10:43;;;;;;;4.47;2.55;;;;;;;;;;21079325;28;20100;-59
2021/12/26 11:20:48;;;;;;;3.45;1.83;;;;;;;;;;21078706;28;20056;-61
2021/12/26 11:30:52;;;;;;;3.90;2.22;;;;;;;;;;21078058;28;20052;-59
2021/12/26 11:41:08;;;;;;;3.88;2.22;;;;;;;;;;21077309;28;20134;-58
2021/12/26 11:51:09;;;;;;;3.45;2.00;;;;;;;;;;21077397;28;20047;-58
2021/12/26 12:01:18;;;;;;;4.75;2.58;;;;;;;;;;21084664;28;20048;-57
2021/12/26 12:11:21;;;;;;;4.78;2.47;;;;;;;;;;21093814;28;20131;-60
2021/12/26 12:21:41;;;;;;;4.45;2.90;;;;;;;;;;21092093;28;20063;-58
2021/12/26 12:31:42;;;;;;;4.15;3.15;;;;;;;;;;21073672;28;20131;-57
2021/12/26 12:41:46;;;;;;;6.22;3.83;;;;;;;;;;21092199;28;20181;-56
2021/12/26 12:51:50;;;;;;;3.47;1.70;;;;;;;;;;21090019;28;20439;-59
2021/12/26 13:01:54;;;;;;;3.47;1.30;;;;;;;;;;21088900;28;20048;-58
2021/12/26 13:12:01;;;;;;;7.65;1.92;;;;;;;;;;21088508;28;20547;-59
2021/12/26 13:22:06;;;;;;;2.40;1.23;;;;;;;;;;21088545;28;20430;-59
2021/12/26 13:32:09;;;;;;;3.60;1.70;;;;;;;;;;21087591;28;20132;-58
2021/12/26 13:42:14;;;;;;;3.10;2.13;;;;;;;;;;21086883;28;20069;-61
2021/12/26 13:52:19;;;;;;;6.80;3.00;;;;;;;;;;21086628;28;20297;-58
2021/12/26 14:02:26;;;;;;;8.67;2.93;;;;;;;;;;21084579;28;20055;-60
2021/12/26 14:12:46;;;;;;;9.23;4.28;;;;;;;;;;21085115;28;20040;-59
2021/12/26 14:22:49;;;;;;;4.65;2.38;;;;;;;;;;21083935;28;20079;-59
2021/12/26 14:32:58;;;;;;;5.32;3.60;;;;;;;;;;21082481;28;20109;-58
2021/12/26 14:43:07;;;;;;;10.77;5.65;;;;;;;;;;21081641;28;20405;-58
2021/12/26 14:53:13;;;;;;;6.40;3.95;;;;;;;;;;21080662;28;20056;-58
2021/12/26 15:03:21;;;;;;;8.95;5.53;;;;;;;;;;21080527;28;20130;-57
2021/12/26 15:13:23;;;;;;;11.18;5.78;;;;;;;;;;21080414;28;20481;-58
2021/12/26 15:23:29;;;;;;;7.10;4.00;;;;;;;;;;21080242;28;20056;-58
2021/12/26 15:33:33;;;;;;;7.83;5.17;;;;;;;;;;21079067;28;20499;-58
2021/12/26 15:43:37;;;;;;;7.47;5.10;;;;;;;;;;21078442;28;20451;-58
2021/12/26 15:53:42;;;;;;;5.03;3.73;;;;;;;;;;21078303;28;20048;-58
2021/12/26 16:03:45;;;;;;;7.55;5.57;;;;;;;;;;21078025;28;20446;-56
2021/12/26 16:13:49;;;;;;;9.13;6.57;;;;;;;;;;21061537;28;20401;-59
2021/12/26 16:23:54;;;;;;;6.43;5.70;;;;;;;;;;21076754;28;20490;-59
2021/12/26 16:33:56;;;;;;;9.05;6.32;;;;;;;;;;21076717;28;20071;-57
2021/12/26 16:43:58;;;;;;;10.00;7.75;;;;;;;;;;21076246;28;20131;-60
2021/12/26 16:54:01;;;;;;;8.55;7.72;;;;;;;;;;21089988;28;20056;-58
2021/12/26 17:04:05;;;;;;;7.20;5.20;;;;;;;;;;21089728;28;20052;-58
2021/12/26 17:14:08;;;;;;;7.78;5.85;;;;;;;;;;21090023;28;20048;-58
2021/12/26 17:24:11;;;;;;;8.13;6.35;;;;;;;;;;21088618;28;20048;-59
2021/12/26 17:34:18;;;;;;;6.70;6.00;;;;;;;;;;21087752;28;20059;-58
2021/12/26 17:44:21;;;;;;;6.00;5.30;;;;;;;;;;21086535;28;20056;-60
2021/12/26 17:54:24;;;;;;;4.30;3.42;;;;;;;;;;21085488;28;20044;-59
2021/12/26 18:04:26;;;;;;;8.88;5.88;;;;;;;;;;21084974;28;20058;-59
2021/12/26 18:14:33;;;;;;;36.60;28.60;;;;;;;;;;21085598;28;20048;-59
2021/12/26 18:24:34;;;;;;;11.30;9.30;;;;;;;;;;21083303;28;20485;-60
2021/12/26 18:34:37;;;;;;;10.07;8.70;;;;;;;;;;21065198;28;20061;-60
2021/12/26 18:44:39;;;;;;;12.38;10.73;;;;;;;;;;21081652;28;20047;-59
2021/12/26 18:54:41;;;;;;;15.00;12.55;;;;;;;;;;21080543;28;20044;-59
2021/12/26 19:04:43;;;;;;;17.33;13.75;;;;;;;;;;21080933;28;20048;-59
2021/12/26 19:14:46;;;;;;;15.57;12.80;;;;;;;;;;21079166;28;20098;-59
2021/12/26 19:24:49;;;;;;;16.10;14.32;;;;;;;;;;21079990;28;20383;-59
2021/12/26 19:34:51;;;;;;;15.25;11.63;;;;;;;;;;21077655;28;20109;-61
2021/12/26 19:44:55;;;;;;;13.30;9.20;;;;;;;;;;21077986;28;20048;-59
2021/12/26 19:54:58;;;;;;;10.85;7.55;;;;;;;;;;21077165;28;20052;-59
2021/12/26 20:05:01;;;;;;;6.68;5.18;;;;;;;;;;21077317;28;20101;-59
2021/12/26 20:15:06;;;;;;;4.90;4.23;;;;;;;;;;21077171;28;20044;-59
2021/12/26 20:25:09;;;;;;;6.10;4.32;;;;;;;;;;21089130;28;20308;-59
2021/12/26 20:35:11;;;;;;;5.25;3.22;;;;;;;;;;21093049;28;20052;-60
2021/12/26 20:45:12;;;;;;;4.63;3.50;;;;;;;;;;21091913;28;20450;-59
2021/12/26 20:55:15;;;;;;;5.05;3.70;;;;;;;;;;21090696;28;20515;-59
2021/12/26 21:05:17;;;;;;;4.97;3.70;;;;;;;;;;21090257;28;20055;-59
2021/12/26 21:15:21;;;;;;;5.45;4.35;;;;;;;;;;21089570;28;20085;-59
2021/12/26 21:25:23;;;;;;;6.05;4.40;;;;;;;;;;21088695;28;20048;-59
2021/12/26 21:35:25;;;;;;;7.43;5.70;;;;;;;;;;21088053;28;20055;-59
2021/12/26 21:45:28;;;;;;;8.38;5.30;;;;;;;;;;21069952;28;20455;-59
2021/12/26 21:55:32;;;;;;;7.13;5.70;;;;;;;;;;21086424;28;20056;-59
2021/12/26 22:05:35;;;;;;;5.38;4.63;;;;;;;;;;21085916;28;20058;-60
2021/12/26 22:15:37;;;;;;;3.72;2.97;;;;;;;;;;21086329;28;20048;-61
2021/12/26 22:25:42;;;;;;;3.50;2.70;;;;;;;;;;21084189;28;20051;-58
2021/12/26 22:35:43;;;;;;;6.07;4.20;;;;;;;;;;21083493;28;20044;-59
2021/12/26 22:45:48;;;;;;;3.97;3.20;;;;;;;;;;21082683;28;20109;-60
2021/12/26 22:55:50;;;;;;;3.97;2.80;;;;;;;;;;21081909;28;20084;-58
2021/12/26 23:06:00;;;;;;;5.80;2.90;;;;;;;;;;21081090;28;20453;-60
2021/12/26 23:16:02;;;;;;;2.75;1.95;;;;;;;;;;21081273;28;20509;-57
2021/12/26 23:26:05;;;;;;;3.55;2.47;;;;;;;;;;21080993;28;20059;-59
2021/12/26 23:36:07;;;;;;;4.22;1.50;;;;;;;;;;21061227;28;20040;-59
2021/12/26 23:46:10;;;;;;;3.85;1.85;;;;;;;;;;21078758;28;20056;-57
2021/12/26 23:56:11;;;;;;;3.75;2.80;;;;;;;;;;21084690;28;20047;-59
